CheckWX is a tool to help pilots better visualize weather data.  It is not intended as a substitute for an official pre-flight weather briefing.

03:17:40 UTC

FKKN METAR
N'Gaoundéré Airport
N'Gaoundéré, Cameroon
Current

11 hours ago

FKKN 261600Z 18004KT 9999 FEW020 FEW023CB 24/18 Q1013
Observed
May-26 @ 16:00 UTC
Wind
  • 180° at 4 KTS
Visibility
10,000+ meters
Flight Rules
VFR
Cloud Levels
  • Few at 2,000' AGL
  • Few at 2,300' AGL
Temperature
24°C / 75°F
Dewpoint
18°C / 64°F
Humidity
69%
Altimeter
29.91" Hg
Pressure
1012.92 hPa
Previous

12 hours ago

FKKN 261500Z 18008KT 9999 FEW020 FEW023CB 24/17 Q1013 RETS
Observed
May-26 @ 15:00 UTC
Wind
  • 180° at 8 KTS
Visibility
10,000+ meters
Flight Rules
VFR
Cloud Levels
  • Few at 2,000' AGL
  • Few at 2,300' AGL
Temperature
24°C / 75°F
Dewpoint
17°C / 63°F
Humidity
65%
Altimeter
29.91" Hg
Pressure
1012.92 hPa
Previous

13 hours ago

FKKN 261400Z 14008KT 9999 TS FEW020 FEW023CB 25/17 Q1014
Observed
May-26 @ 14:00 UTC
Wind
  • 140° at 8 KTS
Visibility
10,000+ meters
Flight Rules
VFR
Conditions
Thunderstorm
Cloud Levels
  • Few at 2,000' AGL
  • Few at 2,300' AGL
Temperature
25°C / 77°F
Dewpoint
17°C / 63°F
Humidity
61%
Altimeter
29.94" Hg
Pressure
1013.92 hPa